Ship Status Report: callsign BAREU51

sailwx.info

Track history (hours):
 
Tides and Currents Weather Stations Pressure Air Temp Water Temp Dewpoint Dewpoint Depression Visibility Wind Speed Wind Dir Waves Ship Positions

Callsign BAREU51 (name unknown)

Last reported at 2016-Feb-11 16:00 UTC. Time now 2016-Feb-11 17:12 UTC.
Position N 43°12' E 009°30'.

Barometer 1007.7 mb
Air temperature 12.1 ° C

Date/timePositionNaut miles runAvg speedWind from/ knotsBaromVisibWave heightAir tempDewpointWater temp
2016-Feb-11 16:00N 43°12' E 009°30'2625.6 1007.7 12.1
2016-Feb-11 15:00N 42°48' E 009°42'2625.6 1008.8 13.2
2016-Feb-11 14:00N 42°24' E 009°54'2727.5 1009.8 13.1
2016-Feb-11 13:00N 42°00' E 010°12'2727.5 1010.5 13.3
2016-Feb-11 12:00N 41°36' E 010°30'2222.5 1011.2 12.6
2016-Feb-11 11:00N 41°18' E 010°48'2827.6 1011.5 11.9
2016-Feb-11 10:00N 40°54' E 011°06'2322.6 1010.5 12.2
2016-Feb-11 09:00N 40°36' E 011°24'2322.6 1008.5 12.8
2016-Feb-11 08:00N 40°18' E 011°42'2020.2 1008.0 13.0
2016-Feb-11 07:00N 40°00' E 011°54'2322.7 1007.8 12.9
2016-Feb-11 06:00N 39°42' E 012°12'2020.2 1004.8 15.1
2016-Feb-11 05:00N 39°24' E 012°24'2322.8 1005.1 15.0
2016-Feb-11 04:00N 39°06' E 012°42'2020.3 1007.4 14.7
2016-Feb-11 03:00N 38°48' E 012°54'2322.8 1008.5 14.8
2016-Feb-11 02:00N 38°30' E 013°12'2020.3 1010.0 14.7
2016-Feb-11 01:00N 38°12' E 013°24'0 0.0 1013.5 15.6
2016-Feb-10 20:00N 38°12' E 013°24'2020.3 1013.3 15.1
2016-Feb-10 19:00N 38°30' E 013°12'2626.0 1013.3 14.2
2016-Feb-10 18:00N 38°48' E 012°48'1818.4 1013.0 14.3
2016-Feb-10 17:00N 39°00' E 012°30'2322.8 1011.9 14.4
2016-Feb-10 16:00N 39°18' E 012°12'2322.7 1010.8 14.5
2016-Feb-10 15:00N 39°36' E 011°54'2625.8 1010.3 14.4
2016-Feb-10 14:00N 39°54' E 011°30'1818.3 1008.6 14.6
2016-Feb-10 13:00N 40°06' E 011°12'2625.7 1008.8 14.6
2016-Feb-10 12:00N 40°24' E 010°48'2322.6 1008.5 14.4
2016-Feb-10 11:00N 40°42' E 010°30'2322.6 1007.9 14.3
2016-Feb-10 10:00N 41°00' E 010°12'2322.5 1007.5 13.3
2016-Feb-10 09:00N 41°18' E 009°54'2625.6 1004.4 12.5
2016-Feb-10 08:00N 41°42' E 009°42'1818.0 1002.6 14.0
2016-Feb-10 07:00N 42°00' E 009°42'2424.4 1001.2 13.8
2016-Feb-10 06:00N 42°24' E 009°48'2424.0 1000.7 14.0
2016-Feb-10 05:00N 42°48' E 009°48'2020.0 995.7 12.8
2016-Feb-10 04:00N 43°06' E 010°00'2121.2 995.7 13.1
2016-Feb-10 03:00N 43°18' E 009°36'2121.2 995.5 12.8
2016-Feb-10 02:00N 43°30' E 009°12'2222.2 994.7 12.8
2016-Feb-10 01:00N 43°48' E 008°54'2020.0 996.7 13.0
2016-Feb-10 00:00N 44°06' E 008°42'2222.1 995.7 11.1
2016-Feb-09 23:00N 44°24' E 009°00'4 0.9 997.1 11.1
2016-Feb-09 18:00N 44°24' E 008°54'1514.8 1002.4 13.3
2016-Feb-09 17:00N 44°12' E 009°06'2222.2 1004.7 13.4
2016-Feb-09 16:00N 43°54' E 009°24'4723.6 1006.9 13.2
2016-Feb-09 14:00N 43°12' E 009°54'1918.5 1011.5 14.4
2016-Feb-09 13:00N 42°54' E 010°00'2222.3 1013.6 14.1
2016-Feb-09 12:00N 42°36' E 010°18'2222.4 1012.9 13.9
2016-Feb-09 11:00N 42°18' E 010°36'2625.6 1017.7 14.6
2016-Feb-09 10:00N 41°54' E 010°48'2222.5 1019.2 14.1
2016-Feb-09 09:00N 41°36' E 011°06'2020.1 1020.5 14.1
2016-Feb-09 08:00N 41°18' E 011°18'2625.6 1021.6 14.0
2016-Feb-09 07:00N 40°54' E 011°30'2322.6 1022.2 14.1
2016-Feb-09 06:00N 40°36' E 011°48'2020.2 1022.8 13.9
2016-Feb-09 05:00N 40°18' E 012°00'2625.7 1022.7 13.6
2016-Feb-09 04:00N 39°54' E 012°12'2020.2 1023.3 13.5
2016-Feb-09 03:00N 39°36' E 012°24'2827.7 1023.5 13.8
2016-Feb-09 02:00N 39°12' E 012°42'2020.3 1024.4 13.7
2016-Feb-09 01:00N 38°54' E 012°54'2020.3 1025.1 13.6
2016-Feb-09 00:00N 38°36' E 013°06'2322.9 1025.2 13.9
2016-Feb-08 23:00N 38°18' E 013°24'12 4.0 1025.6 13.9
2016-Feb-08 20:00N 38°06' E 013°24'12 0.5 1025.8 12.5
2016-Feb-07 18:00N 38°18' E 013°24'2322.9 1017.2 16.1
2016-Feb-07 17:00N 38°36' E 013°06'2020.3 1016.3 16.0
2016-Feb-07 16:00N 38°54' E 012°54'2322.8 1015.7 15.6
2016-Feb-07 15:00N 39°12' E 012°36'2020.3 1016.1 15.3
2016-Feb-07 14:00N 39°30' E 012°24'2322.7 1014.5 15.3
2016-Feb-07 13:00N 39°48' E 012°06'1515.1 1014.9 15.1
2016-Feb-07 12:00N 40°00' E 011°54'2322.7 1015.6 15.2
2016-Feb-07 11:00N 40°18' E 011°36'2020.2 1015.7 15.4
2016-Feb-07 10:00N 40°36' E 011°24'4321.3 1015.9 15.2
2016-Feb-07 08:00N 41°12' E 010°54'2322.5 1016.8 14.4
2016-Feb-07 07:00N 41°30' E 010°36'2222.5 1016.2 13.9
2016-Feb-07 06:00N 41°48' E 010°18'2020.1 1016.1 13.9
2016-Feb-07 05:00N 42°06' E 010°06'2222.4 1016.9 14.0
2016-Feb-07 04:00N 42°24' E 009°48'2424.4 1016.9 13.9
2016-Feb-07 03:00N 42°48' E 009°42'2020.0 1017.5 13.9
2016-Feb-07 02:00N 43°06' E 009°30'2424.4 1018.2 13.8
2016-Feb-07 01:00N 43°30' E 009°24'2020.0 1019.1 13.6
2016-Feb-07 00:00N 43°48' E 009°12'1918.5 1020.3 13.4
2016-Feb-06 23:00N 44°06' E 009°06'20 6.6 1021.2 13.4
2016-Feb-06 20:00N 44°24' E 008°54'0 0.0 1025.3 13.3
2016-Feb-06 18:00N 44°24' E 008°54'2222.1 1026.6 13.3
2016-Feb-06 17:00N 44°06' E 009°12'2222.2 1026.7 13.1
2016-Feb-06 16:00N 43°48' E 009°30'4723.7 1027.1 13.8
2016-Feb-06 14:00N 43°06' E 010°00'2424.4 1028.1 13.8
2016-Feb-06 13:00N 42°42' E 010°06'2121.4 1028.9 13.5
2016-Feb-06 12:00N 42°30' E 010°30'2625.6 1030.2 14.0
2016-Feb-06 11:00N 42°06' E 010°42'2222.4 1031.3 14.0
2016-Feb-06 10:00N 41°48' E 011°00'2625.6 1032.1 14.6
2016-Feb-06 09:00N 41°24' E 011°12'2020.1 1031.9 14.2
2016-Feb-06 08:00N 41°06' E 011°24'2827.6 1032.4 14.7
2016-Feb-06 07:00N 40°42' E 011°42'2020.2 1032.2 13.4
2016-Feb-06 06:00N 40°24' E 011°54'2625.7 1031.7 13.1
2016-Feb-06 05:00N 40°00' E 012°06'2322.7 1031.4 13.2
2016-Feb-06 04:00N 39°42' E 012°24'2625.7 1031.4 13.2
2016-Feb-06 03:00N 39°18' E 012°36'2020.3 1031.4 13.3
2016-Feb-06 02:00N 39°00' E 012°48'2020.3 1031.3 13.5
2016-Feb-06 01:00N 38°42' E 013°00'2827.8 1031.4 13.5
2016-Feb-06 00:00N 38°18' E 013°18'1312.9 1031.5 12.9
2016-Feb-05 23:00N 38°06' E 013°24'0 0.0 1031.7 10.8
2016-Feb-05 19:00N 38°06' E 013°24'1312.9 1030.4 12.0
2016-Feb-05 18:00N 38°18' E 013°18'2020.3 1029.5 13.2
2016-Feb-05 17:00N 38°36' E 013°06'2827.8 1029.0 13.1
2016-Feb-05 16:00N 39°00' E 012°48'2322.8 1028.2 13.8
2016-Feb-05 15:00N 39°18' E 012°30'2020.2 1027.7 14.5
2016-Feb-05 14:00N 39°36' E 012°18'2322.7 1027.5 14.9
2016-Feb-05 13:00N 39°54' E 012°00'2827.7 1027.4 15.4
2016-Feb-05 12:00N 40°18' E 011°42'2020.2 1027.7 15.7
2016-Feb-05 11:00N 40°36' E 011°30'2322.6 1027.8 14.6
2016-Feb-05 10:00N 40°54' E 011°12'2322.5 1027.5 13.3
2016-Feb-05 09:00N 41°12' E 010°54'2322.5 1026.5 13.0
2016-Feb-05 08:00N 41°30' E 010°36'2625.6 1025.5 12.7
2016-Feb-05 07:00N 41°54' E 010°24'2222.4 1024.4 12.6
2016-Feb-05 06:00N 42°12' E 010°06'2020.1 1023.6 12.5
2016-Feb-05 05:00N 42°30' E 009°54'2424.4 1023.6 12.0
2016-Feb-05 04:00N 42°54' E 010°00'4522.7 1023.4 12.4
2016-Feb-05 02:00N 43°36' E 009°36'2222.2 1023.5 12.5
2016-Feb-05 01:00N 43°54' E 009°18'2727.3 1023.8 12.5
2016-Feb-05 00:00N 44°18' E 009°00'7 1.5 1024.2 11.1
2016-Feb-04 19:00N 44°24' E 008°54'2222.1 1024.8 10.5
2016-Feb-04 18:00N 44°06' E 009°12'2727.3 1023.4 12.1
2016-Feb-04 17:00N 43°42' E 009°30'2727.3 1022.7 12.1
2016-Feb-04 16:00N 43°18' E 009°48'2625.5 1023.5 12.7
2016-Feb-04 15:00N 42°54' E 010°00'2222.3 1023.8 13.1
2016-Feb-04 14:00N 42°36' E 010°18'2525.3 1023.3 13.6
2016-Feb-04 13:00N 42°18' E 010°42'2525.3 1023.8 12.7
2016-Feb-04 12:00N 42°00' E 011°06'2928.7 1023.4 12.2
2016-Feb-04 11:00N 41°42' E 011°36'2020.1 1022.6 11.2
2016-Feb-04 10:00N 41°24' E 011°48'1918.6 1021.1 11.5
2016-Feb-04 09:00N 41°06' E 011°54'2020.2 1020.0 11.4
2016-Feb-04 08:00N 40°48' E 012°06'1918.6 1018.7 11.6
2016-Feb-04 07:00N 40°30' E 012°12'2424.4 1017.8 12.2
2016-Feb-04 06:00N 40°06' E 012°18'1918.6 1017.7 11.8
2016-Feb-04 05:00N 39°48' E 012°24'1918.6 1016.8 12.8
2016-Feb-04 04:00N 39°30' E 012°30'2020.3 1017.4 12.5
2016-Feb-04 03:00N 39°12' E 012°42'2020.3 1018.1 13.6
2016-Feb-04 02:00N 38°54' E 012°54'2020.3 1018.9 14.2
2016-Feb-04 01:00N 38°36' E 013°06'2322.9 1019.7 14.7
2016-Feb-04 00:00N 38°18' E 013°24'12 2.0 1019.6 15.1
2016-Feb-03 18:00N 38°06' E 013°24'1312.9 1021.8 14.7
2016-Feb-03 17:00N 38°18' E 013°18'2625.8 1021.0 15.2
2016-Feb-03 16:00N 38°42' E 013°06'2322.8 1020.6 14.7
2016-Feb-03 15:00N 39°00' E 012°48'2322.8 1020.3 14.6
2016-Feb-03 14:00N 39°18' E 012°30'2827.7 1021.0 14.8
2016-Feb-03 13:00N 39°42' E 012°12'2020.2 1021.6 15.0
2016-Feb-03 12:00N 40°00' E 012°00'2322.7 1021.8 14.7
2016-Feb-03 11:00N 40°18' E 011°42'2322.6 1022.8 15.5
2016-Feb-03 10:00N 40°36' E 011°24'2020.2 1023.0 15.0
2016-Feb-03 09:00N 40°54' E 011°12'2322.5 1022.3 14.5
2016-Feb-03 08:00N 41°12' E 010°54'2020.1 1021.6 14.6
2016-Feb-03 07:00N 41°30' E 010°42'2222.5 1020.9 14.4
2016-Feb-03 06:00N 41°48' E 010°24'2727.5 1019.9 13.6
2016-Feb-03 05:00N 42°12' E 010°06'2020.1 1021.1 13.4
2016-Feb-03 04:00N 42°30' E 009°54'2424.4 1021.4 13.3
2016-Feb-03 03:00N 42°54' E 010°00'1918.5 1022.1 13.4
2016-Feb-03 02:00N 43°12' E 009°54'2727.3 1022.8 13.6
2016-Feb-03 01:00N 43°36' E 009°36'2222.2 1022.1 13.2
2016-Feb-03 00:00N 43°54' E 009°18'2020.0 1022.9 13.0
2016-Feb-02 23:00N 44°12' E 009°06'6 1.0 1023.6 13.0
2016-Feb-02 17:00N 44°18' E 009°06'2625.5 1025.7 13.6
2016-Feb-02 16:00N 43°54' E 009°18'2222.2 1025.9 14.0
2016-Feb-02 15:00N 43°36' E 009°36'2020.0 1026.2 14.1
2016-Feb-02 14:00N 43°18' E 009°48'2625.5 1026.5 14.3
2016-Feb-02 13:00N 42°54' E 010°00'2020.0 1026.3 14.4
2016-Feb-02 12:00N 42°36' E 010°12'2525.3 1027.2 14.3
2016-Feb-02 11:00N 42°18' E 010°36'2020.1 1028.9 15.3
2016-Feb-02 10:00N 42°00' E 010°48'2727.5 1029.4 15.3
2016-Feb-02 09:00N 41°36' E 011°06'2020.1 1030.0 16.0
2016-Feb-02 08:00N 41°18' E 011°18'2020.1 1030.0 15.3
2016-Feb-02 07:00N 41°00' E 011°30'2625.7 1030.3 14.7
2016-Feb-02 06:00N 40°36' E 011°42'2322.6 1029.7 14.4
2016-Feb-02 05:00N 40°18' E 012°00'2020.2 1029.7 14.3
2016-Feb-02 04:00N 40°00' E 012°12'2625.7 1029.8 14.4
2016-Feb-02 03:00N 39°36' E 012°24'2322.7 1030.0 14.2
2016-Feb-02 02:00N 39°18' E 012°42'2625.7 1030.1 14.3
2016-Feb-02 01:00N 38°54' E 012°54'2020.3 1030.2 14.4
2016-Feb-02 00:00N 38°36' E 013°06'2322.9 1030.1 14.6
2016-Feb-01 23:00N 38°18' E 013°24'   1030.6 14.3
Track history (hours):
 
Tides and Currents Weather Stations Pressure Air Temp Water Temp Dewpoint Dewpoint Depression Visibility Wind Speed Wind Dir Waves Ship Positions

Callsign BAREU51 (name unknown)

Last reported at 2016-Feb-11 16:00 UTC. Time now 2016-Feb-11 17:12 UTC.
Position N 43°12' E 009°30'.

Barometer 1007.7 mb
Air temperature 12.1 ° C

Date/timePositionNaut miles runAvg speedWind from/ knotsBaromVisibWave heightAir tempDewpointWater temp
2016-Feb-11 16:00N 43°12' E 009°30'2625.6 1007.7 12.1
2016-Feb-11 15:00N 42°48' E 009°42'2625.6 1008.8 13.2
2016-Feb-11 14:00N 42°24' E 009°54'2727.5 1009.8 13.1
2016-Feb-11 13:00N 42°00' E 010°12'2727.5 1010.5 13.3
2016-Feb-11 12:00N 41°36' E 010°30'2222.5 1011.2 12.6
2016-Feb-11 11:00N 41°18' E 010°48'2827.6 1011.5 11.9
2016-Feb-11 10:00N 40°54' E 011°06'2322.6 1010.5 12.2
2016-Feb-11 09:00N 40°36' E 011°24'2322.6 1008.5 12.8
2016-Feb-11 08:00N 40°18' E 011°42'2020.2 1008.0 13.0
2016-Feb-11 07:00N 40°00' E 011°54'2322.7 1007.8 12.9
2016-Feb-11 06:00N 39°42' E 012°12'2020.2 1004.8 15.1
2016-Feb-11 05:00N 39°24' E 012°24'2322.8 1005.1 15.0
2016-Feb-11 04:00N 39°06' E 012°42'2020.3 1007.4 14.7
2016-Feb-11 03:00N 38°48' E 012°54'2322.8 1008.5 14.8
2016-Feb-11 02:00N 38°30' E 013°12'2020.3 1010.0 14.7
2016-Feb-11 01:00N 38°12' E 013°24'0 0.0 1013.5 15.6
2016-Feb-10 20:00N 38°12' E 013°24'2020.3 1013.3 15.1
2016-Feb-10 19:00N 38°30' E 013°12'2626.0 1013.3 14.2
2016-Feb-10 18:00N 38°48' E 012°48'1818.4 1013.0 14.3
2016-Feb-10 17:00N 39°00' E 012°30'2322.8 1011.9 14.4
2016-Feb-10 16:00N 39°18' E 012°12'2322.7 1010.8 14.5
2016-Feb-10 15:00N 39°36' E 011°54'2625.8 1010.3 14.4
2016-Feb-10 14:00N 39°54' E 011°30'1818.3 1008.6 14.6
2016-Feb-10 13:00N 40°06' E 011°12'2625.7 1008.8 14.6
2016-Feb-10 12:00N 40°24' E 010°48'2322.6 1008.5 14.4
2016-Feb-10 11:00N 40°42' E 010°30'2322.6 1007.9 14.3
2016-Feb-10 10:00N 41°00' E 010°12'2322.5 1007.5 13.3
2016-Feb-10 09:00N 41°18' E 009°54'2625.6 1004.4 12.5
2016-Feb-10 08:00N 41°42' E 009°42'1818.0 1002.6 14.0
2016-Feb-10 07:00N 42°00' E 009°42'2424.4 1001.2 13.8
2016-Feb-10 06:00N 42°24' E 009°48'2424.0 1000.7 14.0
2016-Feb-10 05:00N 42°48' E 009°48'2020.0 995.7 12.8
2016-Feb-10 04:00N 43°06' E 010°00'2121.2 995.7 13.1
2016-Feb-10 03:00N 43°18' E 009°36'2121.2 995.5 12.8
2016-Feb-10 02:00N 43°30' E 009°12'2222.2 994.7 12.8
2016-Feb-10 01:00N 43°48' E 008°54'2020.0 996.7 13.0
2016-Feb-10 00:00N 44°06' E 008°42'2222.1 995.7 11.1
2016-Feb-09 23:00N 44°24' E 009°00'4 0.9 997.1 11.1
2016-Feb-09 18:00N 44°24' E 008°54'1514.8 1002.4 13.3
2016-Feb-09 17:00N 44°12' E 009°06'2222.2 1004.7 13.4
2016-Feb-09 16:00N 43°54' E 009°24'4723.6 1006.9 13.2
2016-Feb-09 14:00N 43°12' E 009°54'1918.5 1011.5 14.4
2016-Feb-09 13:00N 42°54' E 010°00'2222.3 1013.6 14.1
2016-Feb-09 12:00N 42°36' E 010°18'2222.4 1012.9 13.9
2016-Feb-09 11:00N 42°18' E 010°36'2625.6 1017.7 14.6
2016-Feb-09 10:00N 41°54' E 010°48'2222.5 1019.2 14.1
2016-Feb-09 09:00N 41°36' E 011°06'2020.1 1020.5 14.1
2016-Feb-09 08:00N 41°18' E 011°18'2625.6 1021.6 14.0
2016-Feb-09 07:00N 40°54' E 011°30'2322.6 1022.2 14.1
2016-Feb-09 06:00N 40°36' E 011°48'2020.2 1022.8 13.9
2016-Feb-09 05:00N 40°18' E 012°00'2625.7 1022.7 13.6
2016-Feb-09 04:00N 39°54' E 012°12'2020.2 1023.3 13.5
2016-Feb-09 03:00N 39°36' E 012°24'2827.7 1023.5 13.8
2016-Feb-09 02:00N 39°12' E 012°42'2020.3 1024.4 13.7
2016-Feb-09 01:00N 38°54' E 012°54'2020.3 1025.1 13.6
2016-Feb-09 00:00N 38°36' E 013°06'2322.9 1025.2 13.9
2016-Feb-08 23:00N 38°18' E 013°24'12 4.0 1025.6 13.9
2016-Feb-08 20:00N 38°06' E 013°24'12 0.5 1025.8 12.5
2016-Feb-07 18:00N 38°18' E 013°24'2322.9 1017.2 16.1
2016-Feb-07 17:00N 38°36' E 013°06'2020.3 1016.3 16.0
2016-Feb-07 16:00N 38°54' E 012°54'2322.8 1015.7 15.6
2016-Feb-07 15:00N 39°12' E 012°36'2020.3 1016.1 15.3
2016-Feb-07 14:00N 39°30' E 012°24'2322.7 1014.5 15.3
2016-Feb-07 13:00N 39°48' E 012°06'1515.1 1014.9 15.1
2016-Feb-07 12:00N 40°00' E 011°54'2322.7 1015.6 15.2
2016-Feb-07 11:00N 40°18' E 011°36'2020.2 1015.7 15.4
2016-Feb-07 10:00N 40°36' E 011°24'4321.3 1015.9 15.2
2016-Feb-07 08:00N 41°12' E 010°54'2322.5 1016.8 14.4
2016-Feb-07 07:00N 41°30' E 010°36'2222.5 1016.2 13.9
2016-Feb-07 06:00N 41°48' E 010°18'2020.1 1016.1 13.9
2016-Feb-07 05:00N 42°06' E 010°06'2222.4 1016.9 14.0
2016-Feb-07 04:00N 42°24' E 009°48'2424.4 1016.9 13.9
2016-Feb-07 03:00N 42°48' E 009°42'2020.0 1017.5 13.9
2016-Feb-07 02:00N 43°06' E 009°30'2424.4 1018.2 13.8
2016-Feb-07 01:00N 43°30' E 009°24'2020.0 1019.1 13.6
2016-Feb-07 00:00N 43°48' E 009°12'1918.5 1020.3 13.4
2016-Feb-06 23:00N 44°06' E 009°06'20 6.6 1021.2 13.4
2016-Feb-06 20:00N 44°24' E 008°54'0 0.0 1025.3 13.3
2016-Feb-06 18:00N 44°24' E 008°54'2222.1 1026.6 13.3
2016-Feb-06 17:00N 44°06' E 009°12'2222.2 1026.7 13.1
2016-Feb-06 16:00N 43°48' E 009°30'4723.7 1027.1 13.8
2016-Feb-06 14:00N 43°06' E 010°00'2424.4 1028.1 13.8
2016-Feb-06 13:00N 42°42' E 010°06'2121.4 1028.9 13.5
2016-Feb-06 12:00N 42°30' E 010°30'2625.6 1030.2 14.0
2016-Feb-06 11:00N 42°06' E 010°42'2222.4 1031.3 14.0
2016-Feb-06 10:00N 41°48' E 011°00'2625.6 1032.1 14.6
2016-Feb-06 09:00N 41°24' E 011°12'2020.1 1031.9 14.2
2016-Feb-06 08:00N 41°06' E 011°24'2827.6 1032.4 14.7
2016-Feb-06 07:00N 40°42' E 011°42'2020.2 1032.2 13.4
2016-Feb-06 06:00N 40°24' E 011°54'2625.7 1031.7 13.1
2016-Feb-06 05:00N 40°00' E 012°06'2322.7 1031.4 13.2
2016-Feb-06 04:00N 39°42' E 012°24'2625.7 1031.4 13.2
2016-Feb-06 03:00N 39°18' E 012°36'2020.3 1031.4 13.3
2016-Feb-06 02:00N 39°00' E 012°48'2020.3 1031.3 13.5
2016-Feb-06 01:00N 38°42' E 013°00'2827.8 1031.4 13.5
2016-Feb-06 00:00N 38°18' E 013°18'1312.9 1031.5 12.9
2016-Feb-05 23:00N 38°06' E 013°24'0 0.0 1031.7 10.8
2016-Feb-05 19:00N 38°06' E 013°24'1312.9 1030.4 12.0
2016-Feb-05 18:00N 38°18' E 013°18'2020.3 1029.5 13.2
2016-Feb-05 17:00N 38°36' E 013°06'2827.8 1029.0 13.1
2016-Feb-05 16:00N 39°00' E 012°48'2322.8 1028.2 13.8
2016-Feb-05 15:00N 39°18' E 012°30'2020.2 1027.7 14.5
2016-Feb-05 14:00N 39°36' E 012°18'2322.7 1027.5 14.9
2016-Feb-05 13:00N 39°54' E 012°00'2827.7 1027.4 15.4
2016-Feb-05 12:00N 40°18' E 011°42'2020.2 1027.7 15.7
2016-Feb-05 11:00N 40°36' E 011°30'2322.6 1027.8 14.6
2016-Feb-05 10:00N 40°54' E 011°12'2322.5 1027.5 13.3
2016-Feb-05 09:00N 41°12' E 010°54'2322.5 1026.5 13.0
2016-Feb-05 08:00N 41°30' E 010°36'2625.6 1025.5 12.7
2016-Feb-05 07:00N 41°54' E 010°24'2222.4 1024.4 12.6
2016-Feb-05 06:00N 42°12' E 010°06'2020.1 1023.6 12.5
2016-Feb-05 05:00N 42°30' E 009°54'2424.4 1023.6 12.0
2016-Feb-05 04:00N 42°54' E 010°00'4522.7 1023.4 12.4
2016-Feb-05 02:00N 43°36' E 009°36'2222.2 1023.5 12.5
2016-Feb-05 01:00N 43°54' E 009°18'2727.3 1023.8 12.5
2016-Feb-05 00:00N 44°18' E 009°00'7 1.5 1024.2 11.1
2016-Feb-04 19:00N 44°24' E 008°54'2222.1 1024.8 10.5
2016-Feb-04 18:00N 44°06' E 009°12'2727.3 1023.4 12.1
2016-Feb-04 17:00N 43°42' E 009°30'2727.3 1022.7 12.1
2016-Feb-04 16:00N 43°18' E 009°48'2625.5 1023.5 12.7
2016-Feb-04 15:00N 42°54' E 010°00'2222.3 1023.8 13.1
2016-Feb-04 14:00N 42°36' E 010°18'2525.3 1023.3 13.6
2016-Feb-04 13:00N 42°18' E 010°42'2525.3 1023.8 12.7
2016-Feb-04 12:00N 42°00' E 011°06'2928.7 1023.4 12.2
2016-Feb-04 11:00N 41°42' E 011°36'2020.1 1022.6 11.2
2016-Feb-04 10:00N 41°24' E 011°48'1918.6 1021.1 11.5
2016-Feb-04 09:00N 41°06' E 011°54'2020.2 1020.0 11.4
2016-Feb-04 08:00N 40°48' E 012°06'1918.6 1018.7 11.6
2016-Feb-04 07:00N 40°30' E 012°12'2424.4 1017.8 12.2
2016-Feb-04 06:00N 40°06' E 012°18'1918.6 1017.7 11.8
2016-Feb-04 05:00N 39°48' E 012°24'1918.6 1016.8 12.8
2016-Feb-04 04:00N 39°30' E 012°30'2020.3 1017.4 12.5
2016-Feb-04 03:00N 39°12' E 012°42'2020.3 1018.1 13.6
2016-Feb-04 02:00N 38°54' E 012°54'2020.3 1018.9 14.2
2016-Feb-04 01:00N 38°36' E 013°06'2322.9 1019.7 14.7
2016-Feb-04 00:00N 38°18' E 013°24'12 2.0 1019.6 15.1
2016-Feb-03 18:00N 38°06' E 013°24'1312.9 1021.8 14.7
2016-Feb-03 17:00N 38°18' E 013°18'2625.8 1021.0 15.2
2016-Feb-03 16:00N 38°42' E 013°06'2322.8 1020.6 14.7
2016-Feb-03 15:00N 39°00' E 012°48'2322.8 1020.3 14.6
2016-Feb-03 14:00N 39°18' E 012°30'2827.7 1021.0 14.8
2016-Feb-03 13:00N 39°42' E 012°12'2020.2 1021.6 15.0
2016-Feb-03 12:00N 40°00' E 012°00'2322.7 1021.8 14.7
2016-Feb-03 11:00N 40°18' E 011°42'2322.6 1022.8 15.5
2016-Feb-03 10:00N 40°36' E 011°24'2020.2 1023.0 15.0
2016-Feb-03 09:00N 40°54' E 011°12'2322.5 1022.3 14.5
2016-Feb-03 08:00N 41°12' E 010°54'2020.1 1021.6 14.6
2016-Feb-03 07:00N 41°30' E 010°42'2222.5 1020.9 14.4
2016-Feb-03 06:00N 41°48' E 010°24'2727.5 1019.9 13.6
2016-Feb-03 05:00N 42°12' E 010°06'2020.1 1021.1 13.4
2016-Feb-03 04:00N 42°30' E 009°54'2424.4 1021.4 13.3
2016-Feb-03 03:00N 42°54' E 010°00'1918.5 1022.1 13.4
2016-Feb-03 02:00N 43°12' E 009°54'2727.3 1022.8 13.6
2016-Feb-03 01:00N 43°36' E 009°36'2222.2 1022.1 13.2
2016-Feb-03 00:00N 43°54' E 009°18'2020.0 1022.9 13.0
2016-Feb-02 23:00N 44°12' E 009°06'6 1.0 1023.6 13.0
2016-Feb-02 17:00N 44°18' E 009°06'2625.5 1025.7 13.6
2016-Feb-02 16:00N 43°54' E 009°18'2222.2 1025.9 14.0
2016-Feb-02 15:00N 43°36' E 009°36'2020.0 1026.2 14.1
2016-Feb-02 14:00N 43°18' E 009°48'2625.5 1026.5 14.3
2016-Feb-02 13:00N 42°54' E 010°00'2020.0 1026.3 14.4
2016-Feb-02 12:00N 42°36' E 010°12'2525.3 1027.2 14.3
2016-Feb-02 11:00N 42°18' E 010°36'2020.1 1028.9 15.3
2016-Feb-02 10:00N 42°00' E 010°48'2727.5 1029.4 15.3
2016-Feb-02 09:00N 41°36' E 011°06'2020.1 1030.0 16.0
2016-Feb-02 08:00N 41°18' E 011°18'2020.1 1030.0 15.3
2016-Feb-02 07:00N 41°00' E 011°30'2625.7 1030.3 14.7
2016-Feb-02 06:00N 40°36' E 011°42'2322.6 1029.7 14.4
2016-Feb-02 05:00N 40°18' E 012°00'2020.2 1029.7 14.3
2016-Feb-02 04:00N 40°00' E 012°12'2625.7 1029.8 14.4
2016-Feb-02 03:00N 39°36' E 012°24'2322.7 1030.0 14.2
2016-Feb-02 02:00N 39°18' E 012°42'2625.7 1030.1 14.3
2016-Feb-02 01:00N 38°54' E 012°54'2020.3 1030.2 14.4
2016-Feb-02 00:00N 38°36' E 013°06'2322.9 1030.1 14.6
2016-Feb-01 23:00N 38°18' E 013°24'   1030.6 14.3

Dump ship's entire track history